createdAt,value
2023-04-02T00:00:18.582Z,0.77
2023-04-02T00:03:01.959Z,1.90
2023-04-02T00:05:51.129Z,1.20
2023-04-02T00:08:27.536Z,0.80
2023-04-02T00:11:02.327Z,0.90
2023-04-02T00:13:34.408Z,1.20
2023-04-02T00:16:03.623Z,0.70
2023-04-02T00:18:33.251Z,1.17
2023-04-02T00:21:21.550Z,1.42
2023-04-02T00:23:49.033Z,0.70
2023-04-02T00:26:32.344Z,0.70
2023-04-02T00:29:04.438Z,0.43
2023-04-02T00:31:32.638Z,0.88
2023-04-02T00:34:02.610Z,1.10
2023-04-02T00:36:34.905Z,0.90
2023-04-02T00:39:05.145Z,0.88
2023-04-02T00:41:36.327Z,0.75
2023-04-02T00:44:04.073Z,1.10
2023-04-02T00:46:47.318Z,1.00
2023-04-02T00:49:36.501Z,0.70
2023-04-02T00:52:14.607Z,0.82
2023-04-02T00:54:58.793Z,0.80
2023-04-02T00:57:28.299Z,0.80
2023-04-02T00:59:59.958Z,0.93
2023-04-02T01:02:31.136Z,0.68
2023-04-02T01:05:22.383Z,1.35
2023-04-02T01:08:23.560Z,1.10
2023-04-02T01:11:24.628Z,1.92
2023-04-02T01:14:33.183Z,1.42
2023-04-02T01:17:20.646Z,1.73
2023-04-02T01:20:19.745Z,1.10
2023-04-02T01:23:09.372Z,1.05
2023-04-02T01:25:50.513Z,0.63
2023-04-02T01:28:24.794Z,1.40
2023-04-02T01:30:56.053Z,0.65
2023-04-02T01:33:25.340Z,1.30
2023-04-02T01:36:00.122Z,0.80
2023-04-02T01:38:34.187Z,1.02
2023-04-02T01:41:12.134Z,1.27
2023-04-02T01:43:49.997Z,1.08
2023-04-02T01:46:30.159Z,1.17
2023-04-02T01:49:00.356Z,1.23
2023-04-02T01:51:33.400Z,1.25
2023-04-02T01:54:05.060Z,1.38
2023-04-02T01:56:32.659Z,0.60
2023-04-02T01:59:01.460Z,0.82
2023-04-02T02:01:34.531Z,1.02
2023-04-02T02:04:02.556Z,1.67
2023-04-02T02:06:29.645Z,1.23
2023-04-02T02:09:03.850Z,1.13
2023-04-02T02:11:32.574Z,1.00
2023-04-02T02:14:02.490Z,0.90
2023-04-02T02:16:32.015Z,0.50
2023-04-02T02:19:03.198Z,1.10
2023-04-02T02:21:40.164Z,1.40
2023-04-02T02:24:24.634Z,1.30
2023-04-02T02:27:16.607Z,1.55
2023-04-02T02:29:47.236Z,1.02
2023-04-02T02:32:16.125Z,1.40
2023-04-02T02:34:49.268Z,1.42
2023-04-02T02:37:23.864Z,1.52
2023-04-02T02:39:57.067Z,3.03
2023-04-02T02:42:38.764Z,1.13
2023-04-02T02:45:13.154Z,1.00
2023-04-02T02:47:44.154Z,1.05
2023-04-02T02:50:33.003Z,1.40
2023-04-02T02:53:05.267Z,1.10
2023-04-02T02:55:37.006Z,2.30
2023-04-02T02:58:19.365Z,0.93
2023-04-02T03:00:48.063Z,1.48
2023-04-02T03:03:19.514Z,2.08
2023-04-02T03:05:53.962Z,1.85
2023-04-02T03:08:30.145Z,1.63
2023-04-02T03:11:10.583Z,1.02
2023-04-02T03:16:18.058Z,1.13
2023-04-02T03:19:22.885Z,1.33
2023-04-02T03:21:56.216Z,0.85
2023-04-02T03:24:36.182Z,1.60
2023-04-02T03:27:15.582Z,0.88
2023-04-02T03:29:49.806Z,1.60
2023-04-02T03:32:22.601Z,1.30
2023-04-02T03:34:58.480Z,1.20
2023-04-02T03:37:45.468Z,0.93
2023-04-02T03:40:26.541Z,1.10
2023-04-02T03:43:24.524Z,1.90
2023-04-02T03:46:00.784Z,1.23
2023-04-02T03:48:43.324Z,0.98
2023-04-02T03:51:30.925Z,1.20
2023-04-02T03:53:58.161Z,1.40
2023-04-02T03:56:39.996Z,0.90
2023-04-02T03:59:34.851Z,1.17
2023-04-02T04:02:33.822Z,0.88
2023-04-02T04:05:03.261Z,1.30
2023-04-02T04:07:36.892Z,1.27
2023-04-02T04:10:06.823Z,0.95
2023-04-02T04:12:42.434Z,1.10
2023-04-02T04:15:30.408Z,1.05
2023-04-02T04:18:35.087Z,1.08
2023-04-02T04:21:06.998Z,0.77
2023-04-02T04:23:41.205Z,1.30
2023-04-02T04:26:35.002Z,0.90
2023-04-02T04:29:16.909Z,0.68
2023-04-02T04:31:47.526Z,1.40
2023-04-02T04:34:23.017Z,1.23
2023-04-02T04:36:57.225Z,1.13
2023-04-02T04:39:41.551Z,1.35
2023-04-02T04:42:24.792Z,1.55
2023-04-02T04:45:00.725Z,1.58
2023-04-02T04:47:35.747Z,1.10
2023-04-02T04:50:28.157Z,1.48
2023-04-02T04:52:55.367Z,1.13
2023-04-02T04:55:46.063Z,1.83
2023-04-02T04:58:26.073Z,1.38
2023-04-02T05:01:15.867Z,1.40
2023-04-02T05:04:07.114Z,1.40
2023-04-02T05:06:52.806Z,1.17
2023-04-02T05:09:45.801Z,1.73
2023-04-02T05:12:35.531Z,2.10
2023-04-02T05:15:32.902Z,1.73
2023-04-02T05:18:39.692Z,1.55
2023-04-02T05:21:19.375Z,4.20
2023-04-02T05:24:15.356Z,2.05
2023-04-02T05:26:47.703Z,2.05
2023-04-02T05:29:27.965Z,1.65
2023-04-02T05:32:13.865Z,3.22
2023-04-02T05:34:43.162Z,1.67
2023-04-02T05:37:22.556Z,1.13
2023-04-02T05:39:59.937Z,2.40
2023-04-02T05:42:34.714Z,1.25
2023-04-02T05:45:31.456Z,1.92
2023-04-02T05:48:02.145Z,2.70
2023-04-02T05:50:37.397Z,1.90
2023-04-02T05:53:16.208Z,2.05
2023-04-02T05:55:59.701Z,1.50
2023-04-02T05:58:36.682Z,1.70
2023-04-02T06:01:29.537Z,1.95
2023-04-02T06:04:23.136Z,1.52
2023-04-02T06:07:13.591Z,3.67
2023-04-02T06:12:39.609Z,3.17
2023-04-02T06:15:12.855Z,1.73
2023-04-02T06:18:08.598Z,2.10
2023-04-02T06:20:36.112Z,1.55
2023-04-02T06:23:10.220Z,1.60
2023-04-02T06:25:42.103Z,1.45
2023-04-02T06:28:18.059Z,1.88
2023-04-02T06:30:46.095Z,1.58
2023-04-02T06:33:13.929Z,1.67
2023-04-02T06:35:43.129Z,1.50
2023-04-02T06:38:19.836Z,2.10
2023-04-02T06:40:59.093Z,2.75
2023-04-02T06:43:33.692Z,1.48
2023-04-02T06:46:07.563Z,2.13
2023-04-02T06:48:37.905Z,1.88
2023-04-02T06:53:44.361Z,2.25
2023-04-02T06:56:50.896Z,1.83
2023-04-02T06:59:19.233Z,1.98
2023-04-02T07:02:11.164Z,2.13
2023-04-02T07:04:38.339Z,1.88
2023-04-02T07:07:05.409Z,1.33
2023-04-02T07:09:33.006Z,1.45
2023-04-02T07:12:00.108Z,1.40
2023-04-02T07:14:27.120Z,1.40
2023-04-02T07:16:54.138Z,1.30
2023-04-02T07:19:23.121Z,1.17
2023-04-02T07:21:50.597Z,1.38
2023-04-02T07:24:17.590Z,1.58
2023-04-02T07:26:44.910Z,1.83
2023-04-02T07:29:16.125Z,1.20
2023-04-02T07:31:43.621Z,0.82
2023-04-02T07:34:11.031Z,1.83
2023-04-02T07:36:38.108Z,1.30
2023-04-02T07:39:05.486Z,1.25
2023-04-02T07:41:32.603Z,0.70
2023-04-02T07:43:59.639Z,1.02
2023-04-02T07:46:26.934Z,1.00
2023-04-02T07:48:54.016Z,1.98
2023-04-02T07:51:26.741Z,1.38
2023-04-02T07:53:57.280Z,1.35
2023-04-02T07:56:25.520Z,3.38
2023-04-02T07:58:52.716Z,1.13
2023-04-02T08:01:26.840Z,1.40
2023-04-02T08:03:55.734Z,0.80
2023-04-02T08:06:24.636Z,1.15
2023-04-02T08:08:52.603Z,1.00
2023-04-02T08:11:19.737Z,0.88
2023-04-02T08:13:46.964Z,1.17
2023-04-02T08:16:14.181Z,0.65
2023-04-02T08:18:41.649Z,0.70
2023-04-02T08:21:10.288Z,1.02
2023-04-02T08:23:37.793Z,1.05
2023-04-02T08:26:06.210Z,1.10
2023-04-02T08:28:33.307Z,0.80
2023-04-02T08:31:00.961Z,1.00
2023-04-02T08:33:28.158Z,0.75
2023-04-02T08:35:55.227Z,0.57
2023-04-02T08:38:22.619Z,0.52
2023-04-02T08:40:59.900Z,1.55
2023-04-02T08:44:03.153Z,0.93
2023-04-02T08:46:55.189Z,0.50
2023-04-02T08:49:35.232Z,0.68
2023-04-02T08:52:02.291Z,0.77
2023-04-02T08:54:34.711Z,0.40
2023-04-02T08:57:07.831Z,0.70
2023-04-02T08:59:39.056Z,1.02
2023-04-02T09:02:30.963Z,0.50
2023-04-02T09:05:02.479Z,0.55
2023-04-02T09:07:29.706Z,0.50
2023-04-02T09:09:58.314Z,0.43
2023-04-02T09:12:31.033Z,0.60
2023-04-02T09:15:24.857Z,0.80
2023-04-02T09:18:00.669Z,0.50
2023-04-02T09:20:29.350Z,0.32
2023-04-02T09:22:57.331Z,0.45
2023-04-02T09:25:31.505Z,0.50
2023-04-02T09:28:02.348Z,0.55
2023-04-02T09:31:07.196Z,0.50
2023-04-02T09:33:43.128Z,0.40
2023-04-02T09:36:36.101Z,2.58
2023-04-02T09:39:18.630Z,0.47
2023-04-02T09:41:55.827Z,0.52
2023-04-02T09:44:31.864Z,0.52
2023-04-02T09:47:04.925Z,0.75
2023-04-02T09:49:37.414Z,0.57
2023-04-02T09:52:29.194Z,0.35
2023-04-02T09:55:20.075Z,0.38
2023-04-02T09:57:48.703Z,0.35
2023-04-02T10:00:32.616Z,0.30
2023-04-02T10:03:21.790Z,1.58
2023-04-02T10:05:49.340Z,0.30
2023-04-02T10:08:25.209Z,0.35
2023-04-02T10:10:57.456Z,0.10
2023-04-02T10:13:49.483Z,0.30
2023-04-02T10:16:33.997Z,0.10
2023-04-02T10:19:13.416Z,0.50
2023-04-02T10:21:43.196Z,0.10
2023-04-02T10:24:15.651Z,0.20
2023-04-02T10:27:11.661Z,0.20
2023-04-02T10:30:19.265Z,0.13
2023-04-02T10:33:02.526Z,0.10
2023-04-02T10:35:53.748Z,0.32
2023-04-02T10:38:38.915Z,0.30
2023-04-02T10:41:31.232Z,0.10
2023-04-02T10:44:24.398Z,0.30
2023-04-02T10:47:08.290Z,0.15
2023-04-02T10:49:50.255Z,0.30
2023-04-02T10:52:26.296Z,0.10
2023-04-02T10:54:57.320Z,0.30
2023-04-02T10:57:44.847Z,0.10
2023-04-02T11:00:25.375Z,0.25
2023-04-02T11:03:19.651Z,0.20
2023-04-02T11:05:49.760Z,0.38
2023-04-02T11:08:40.018Z,0.38
2023-04-02T11:11:26.517Z,0.20
2023-04-02T11:14:15.944Z,0.20
2023-04-02T11:16:44.793Z,0.45
2023-04-02T11:19:32.036Z,0.20
2023-04-02T11:22:20.055Z,0.43
2023-04-02T11:24:55.783Z,0.10
2023-04-02T11:27:34.111Z,0.10
2023-04-02T11:30:25.736Z,0.10
2023-04-02T11:32:54.433Z,0.00
2023-04-02T11:35:37.325Z,0.63
2023-04-02T11:38:44.288Z,0.25
2023-04-02T11:41:11.543Z,0.10
2023-04-02T11:43:49.694Z,0.20
2023-04-02T11:46:38.723Z,0.30
2023-04-02T11:49:40.124Z,0.10
2023-04-02T11:52:28.862Z,0.10
2023-04-02T11:55:22.779Z,0.10
2023-04-02T11:58:02.242Z,0.10
2023-04-02T12:01:01.605Z,0.85
2023-04-02T12:03:59.085Z,0.10
2023-04-02T12:06:56.106Z,0.20
2023-04-02T12:09:25.532Z,0.20
2023-04-02T12:11:55.634Z,0.00
2023-04-02T12:17:30.589Z,0.10
2023-04-02T12:20:01.919Z,0.10
2023-04-02T12:22:32.772Z,0.43
2023-04-02T12:25:24.751Z,0.20
2023-04-02T12:28:18.139Z,0.20
2023-04-02T12:30:46.932Z,0.10
2023-04-02T12:33:30.712Z,1.33
2023-04-02T12:36:01.457Z,0.10
2023-04-02T12:38:42.439Z,0.10
2023-04-02T12:41:24.454Z,0.10
2023-04-02T12:44:19.122Z,0.10
2023-04-02T12:46:48.017Z,0.10
2023-04-02T12:49:37.133Z,0.10
2023-04-02T12:52:07.468Z,0.10
2023-04-02T12:54:43.876Z,0.20
2023-04-02T12:57:30.705Z,0.40
2023-04-02T13:00:05.671Z,0.30
2023-04-02T13:02:46.945Z,0.40
2023-04-02T13:05:14.050Z,0.28
2023-04-02T13:07:48.085Z,0.20
2023-04-02T13:10:27.593Z,0.98
2023-04-02T13:13:03.328Z,0.10
2023-04-02T13:15:32.996Z,0.15
2023-04-02T13:18:21.713Z,0.25
2023-04-02T13:21:00.489Z,0.10
2023-04-02T13:23:37.099Z,0.03
2023-04-02T13:26:22.051Z,0.05
2023-04-02T13:29:22.943Z,0.13
2023-04-02T13:31:50.975Z,0.10
2023-04-02T13:34:18.467Z,0.10
2023-04-02T13:36:46.550Z,0.10
2023-04-02T13:39:13.946Z,0.10
2023-04-02T13:41:45.515Z,1.95
2023-04-02T13:44:27.154Z,0.05
2023-04-02T13:46:55.261Z,0.10
2023-04-02T13:49:23.897Z,0.10
2023-04-02T13:51:58.103Z,0.00
2023-04-02T13:54:41.301Z,0.10
2023-04-02T13:57:08.506Z,0.00
2023-04-02T13:59:35.839Z,0.30
2023-04-02T14:02:12.064Z,0.10
2023-04-02T14:04:43.700Z,0.32
2023-04-02T14:07:38.925Z,0.10
2023-04-02T14:10:45.647Z,0.60
2023-04-02T14:13:38.746Z,0.00
2023-04-02T14:16:43.209Z,0.10
2023-04-02T14:19:39.830Z,0.13
2023-04-02T14:22:38.423Z,0.10
2023-04-02T14:25:28.245Z,0.00
2023-04-02T14:28:29.997Z,0.32
2023-04-02T14:31:16.059Z,0.10
2023-04-02T14:34:16.946Z,0.22
2023-04-02T14:37:13.852Z,0.00
2023-04-02T14:40:12.695Z,0.30
2023-04-02T14:43:05.902Z,0.20
2023-04-02T14:45:47.275Z,0.28
2023-04-02T14:48:29.972Z,0.17
2023-04-02T14:51:04.610Z,0.10
2023-04-02T14:53:43.500Z,0.10
2023-04-02T14:56:12.584Z,0.63
2023-04-02T14:58:46.856Z,0.30
2023-04-02T15:01:35.497Z,0.00
2023-04-02T15:04:08.430Z,0.00
2023-04-02T15:06:41.867Z,0.10
2023-04-02T15:09:27.451Z,0.00
2023-04-02T15:12:09.900Z,0.00
2023-04-02T15:14:47.792Z,0.98
2023-04-02T15:17:14.921Z,0.17
2023-04-02T15:19:42.031Z,0.08
2023-04-02T15:22:48.752Z,0.10
2023-04-02T15:25:31.394Z,0.00
2023-04-02T15:28:26.845Z,0.00
2023-04-02T15:30:59.125Z,0.00
2023-04-02T15:33:43.902Z,0.00
2023-04-02T15:36:37.012Z,0.00
2023-04-02T15:39:30.033Z,0.00
2023-04-02T15:42:20.161Z,0.00
2023-04-02T15:45:16.988Z,0.17
2023-04-02T15:48:20.904Z,0.30
2023-04-02T15:51:14.271Z,0.10
2023-04-02T15:54:09.959Z,0.00
2023-04-02T15:57:07.520Z,0.00
2023-04-02T16:00:04.126Z,0.05
2023-04-02T16:03:10.999Z,0.00
2023-04-02T16:06:13.087Z,0.05
2023-04-02T16:09:04.718Z,0.00
2023-04-02T16:11:32.073Z,0.00
2023-04-02T16:14:22.717Z,0.00
2023-04-02T16:16:52.050Z,0.75
2023-04-02T16:19:31.085Z,0.00
2023-04-02T16:22:26.622Z,0.17
2023-04-02T16:25:02.345Z,0.00
2023-04-02T16:27:40.181Z,0.00
2023-04-02T16:30:26.577Z,0.10
2023-04-02T16:33:26.356Z,0.10
2023-04-02T16:36:07.171Z,0.08
2023-04-02T16:38:48.998Z,0.10
2023-04-02T16:41:28.762Z,0.08
2023-04-02T16:44:33.118Z,0.00
2023-04-02T16:47:21.692Z,0.00
2023-04-02T16:50:19.183Z,0.00
2023-04-02T16:53:24.908Z,0.00
2023-04-02T16:56:21.607Z,0.17
2023-04-02T16:59:28.429Z,0.10
2023-04-02T17:02:13.131Z,0.00
2023-04-02T17:05:09.121Z,0.15
2023-04-02T17:08:01.973Z,0.38
2023-04-02T17:10:57.783Z,0.38
2023-04-02T17:13:46.058Z,0.17
2023-04-02T17:16:22.032Z,0.10
2023-04-02T17:18:52.578Z,0.03
2023-04-02T17:21:27.381Z,0.10
2023-04-02T17:24:19.131Z,0.10
2023-04-02T17:26:59.846Z,0.15
2023-04-02T17:29:36.057Z,0.00
2023-04-02T17:32:06.562Z,0.00
2023-04-02T17:34:33.643Z,0.05
2023-04-02T17:37:27.957Z,0.17
2023-04-02T17:40:19.245Z,0.00
2023-04-02T17:43:04.901Z,0.43
2023-04-02T17:45:53.054Z,0.00
2023-04-02T17:48:32.272Z,0.10
2023-04-02T17:51:30.588Z,0.00
2023-04-02T17:54:12.764Z,0.00
2023-04-02T17:57:00.171Z,0.00
2023-04-02T17:59:56.007Z,0.10
2023-04-02T18:02:47.501Z,0.20
2023-04-02T18:05:44.041Z,0.10
2023-04-02T18:08:46.163Z,0.10
2023-04-02T18:11:31.735Z,0.22
2023-04-02T18:14:28.521Z,0.10
2023-04-02T18:17:31.097Z,0.43
2023-04-02T18:20:21.329Z,0.10
2023-04-02T18:23:16.003Z,0.13
2023-04-02T18:26:07.484Z,0.10
2023-04-02T18:29:01.989Z,0.20
2023-04-02T18:31:50.653Z,0.10
2023-04-02T18:34:52.467Z,0.50
2023-04-02T18:37:28.103Z,0.30
2023-04-02T18:40:22.192Z,1.65
2023-04-02T18:43:20.068Z,0.10
2023-04-02T18:46:07.367Z,0.25
2023-04-02T18:48:56.908Z,0.10
2023-04-02T18:51:29.232Z,0.20
2023-04-02T18:54:23.111Z,0.30
2023-04-02T18:56:50.197Z,0.50
2023-04-02T18:59:53.632Z,0.20
2023-04-02T19:02:44.494Z,0.20
2023-04-02T19:05:32.132Z,0.17
2023-04-02T19:08:19.418Z,0.20
2023-04-02T19:10:51.387Z,0.10
2023-04-02T19:13:20.295Z,0.10
2023-04-02T19:16:27.133Z,0.70
2023-04-02T19:19:19.312Z,0.17
2023-04-02T19:22:19.717Z,0.20
2023-04-02T19:28:08.855Z,0.35
2023-04-02T19:31:09.734Z,0.20
2023-04-02T19:33:45.427Z,0.20
2023-04-02T19:36:28.136Z,0.30
2023-04-02T19:39:35.007Z,0.30
2023-04-02T19:42:14.036Z,0.22
2023-04-02T19:44:45.177Z,0.30
2023-04-02T19:47:14.322Z,0.45
2023-04-02T19:49:41.497Z,0.55
2023-04-02T19:52:08.616Z,0.20
2023-04-02T19:54:38.195Z,0.17
2023-04-02T19:57:06.032Z,0.38
2023-04-02T19:59:33.171Z,0.50
2023-04-02T20:02:02.224Z,0.20
2023-04-02T20:04:29.324Z,0.38
2023-04-02T20:06:56.609Z,0.20
2023-04-02T20:09:23.742Z,0.40
2023-04-02T20:11:51.002Z,0.38
2023-04-02T20:14:18.001Z,0.70
2023-04-02T20:16:45.874Z,0.30
2023-04-02T20:19:13.235Z,0.60
2023-04-02T20:21:40.766Z,0.28
2023-04-02T20:24:09.017Z,0.40
2023-04-02T20:26:36.539Z,0.50
2023-04-02T20:29:04.116Z,0.75
2023-04-02T20:31:31.801Z,0.40
2023-04-02T20:33:59.675Z,0.50
2023-04-02T20:36:26.937Z,0.65
2023-04-02T20:38:54.037Z,0.25
2023-04-02T20:41:22.033Z,0.25
2023-04-02T20:43:50.109Z,0.50
2023-04-02T20:46:17.313Z,0.30
2023-04-02T20:48:45.133Z,0.40
2023-04-02T20:51:15.368Z,0.30
2023-04-02T20:53:43.010Z,0.50
2023-04-02T20:56:13.958Z,0.35
2023-04-02T20:58:41.719Z,0.57
2023-04-02T21:01:13.477Z,0.60
2023-04-02T21:03:40.583Z,0.50
2023-04-02T21:06:19.572Z,0.40
2023-04-02T21:08:46.987Z,0.40
2023-04-02T21:11:14.996Z,0.40
2023-04-02T21:13:44.296Z,0.55
2023-04-02T21:16:20.341Z,0.50
2023-04-02T21:18:49.451Z,0.55
2023-04-02T21:21:17.104Z,0.50
2023-04-02T21:23:45.300Z,0.47
2023-04-02T21:26:15.485Z,2.40
2023-04-02T21:28:43.149Z,0.50
2023-04-02T21:31:16.521Z,0.50
2023-04-02T21:33:55.764Z,0.55
2023-04-02T21:36:26.478Z,0.40
2023-04-02T21:39:03.471Z,1.13
2023-04-02T21:41:32.901Z,0.57
2023-04-02T21:44:01.319Z,0.80
2023-04-02T21:46:30.602Z,0.98
2023-04-02T21:48:59.569Z,0.98
2023-04-02T21:51:29.745Z,0.50
2023-04-02T21:53:58.076Z,0.43
2023-04-02T21:56:28.110Z,0.50
2023-04-02T21:58:57.125Z,0.60
2023-04-02T22:01:28.026Z,0.60
2023-04-02T22:03:56.797Z,0.70
2023-04-02T22:06:26.032Z,0.73
2023-04-02T22:08:56.477Z,0.75
2023-04-02T22:11:27.005Z,0.57
2023-04-02T22:13:54.863Z,2.53
2023-04-02T22:16:24.975Z,0.60
2023-04-02T22:18:53.628Z,0.52
2023-04-02T22:21:21.651Z,0.82
2023-04-02T22:23:49.484Z,0.40
2023-04-02T22:26:18.591Z,0.63
2023-04-02T22:28:46.229Z,0.70
2023-04-02T22:31:16.240Z,0.85
2023-04-02T22:33:44.660Z,0.52
2023-04-02T22:36:13.190Z,1.27
2023-04-02T22:38:40.350Z,0.85
2023-04-02T22:41:10.992Z,0.88
2023-04-02T22:43:39.259Z,0.85
2023-04-02T22:46:07.987Z,0.50
2023-04-02T22:48:36.270Z,1.20
2023-04-02T22:51:03.435Z,0.65
2023-04-02T22:53:30.411Z,0.80
2023-04-02T22:56:03.752Z,0.77
2023-04-02T22:58:30.961Z,0.80
2023-04-02T23:01:04.983Z,0.65
2023-04-02T23:03:32.118Z,0.80
2023-04-02T23:06:05.821Z,0.80
2023-04-02T23:08:33.201Z,0.85
2023-04-02T23:11:03.384Z,0.77
2023-04-02T23:13:30.818Z,1.00
2023-04-02T23:15:58.177Z,0.60
2023-04-02T23:18:25.207Z,0.70
2023-04-02T23:20:53.934Z,1.30
2023-04-02T23:23:21.171Z,0.70
2023-04-02T23:25:48.248Z,0.75
2023-04-02T23:28:15.842Z,0.80
2023-04-02T23:30:43.978Z,0.70
2023-04-02T23:33:11.108Z,0.70
2023-04-02T23:35:38.249Z,0.88
2023-04-02T23:38:05.328Z,0.60
2023-04-02T23:40:32.449Z,0.65
2023-04-02T23:43:01.810Z,0.82
2023-04-02T23:45:28.865Z,0.80
2023-04-02T23:47:55.944Z,1.92
2023-04-02T23:50:22.998Z,0.50
2023-04-02T23:52:50.048Z,0.75
2023-04-02T23:55:17.156Z,1.27
2023-04-02T23:57:44.246Z,0.80
